Time;durP1;ratioP1;P1;durP2;ratioP2;P2;SDS_P1;SDS_P2;PMS_P1;PMS_P2;Temp;Humidity;BMP_temperature;BMP_pressure;BME280_temperature;BME280_humidity;BME280_pressure;Samples;Min_cycle;Max_cycle;Signal;HPM_P1;HPM_P2
2021/03/28 00:01:40;;;;;;;7.22;3.38;;;2.20;99.90;;;;;;4920971;29;20264;-75
2021/03/28 00:04:10;;;;;;;4.10;3.67;;;2.20;99.90;;;;;;4921118;29;20658;-72
2021/03/28 00:06:55;;;;;;;6.07;3.28;;;2.20;99.90;;;;;;4921097;29;20236;-73
2021/03/28 00:09:27;;;;;;;4.40;3.05;;;2.20;99.90;;;;;;4920971;29;20656;-73
2021/03/28 00:12:07;;;;;;;4.38;3.15;;;2.20;99.90;;;;;;4920268;29;20207;-73
2021/03/28 00:14:46;;;;;;;6.38;3.45;;;2.30;99.90;;;;;;4919529;29;20173;-73
2021/03/28 00:17:37;;;;;;;6.28;3.33;;;2.30;99.90;;;;;;4903085;29;20228;-72
2021/03/28 00:20:26;;;;;;;8.57;4.25;;;2.30;99.90;;;;;;4917604;29;20209;-73
2021/03/28 00:23:05;;;;;;;4.20;2.67;;;2.30;99.90;;;;;;4918528;29;20625;-72
2021/03/28 00:25:35;;;;;;;8.77;3.65;;;2.20;99.90;;;;;;4920346;29;20185;-73
2021/03/28 00:28:07;;;;;;;5.35;4.07;;;2.30;99.90;;;;;;4918521;29;20217;-73
2021/03/28 00:30:38;;;;;;;4.93;3.13;;;2.30;99.90;;;;;;4918267;29;20549;-72
2021/03/28 00:33:20;;;;;;;7.72;3.78;;;2.30;99.90;;;;;;4921020;29;20355;-72
2021/03/28 00:35:51;;;;;;;4.85;3.13;;;2.30;99.90;;;;;;4918045;29;20182;-72
2021/03/28 00:38:23;;;;;;;3.35;2.90;;;2.30;99.90;;;;;;4918862;29;20215;-72
2021/03/28 00:41:14;;;;;;;4.28;3.88;;;2.30;99.90;;;;;;4918887;29;20208;-73
2021/03/28 00:43:47;;;;;;;4.05;2.72;;;2.30;99.90;;;;;;4902532;29;20714;-72
2021/03/28 03:05:33;;;;;;;24.63;3.65;;;2.20;99.90;;;;;;4916699;29;20218;-70
2021/03/28 03:08:07;;;;;;;13.27;2.63;;;2.20;99.90;;;;;;4916243;29;20210;-73
2021/03/28 03:10:58;;;;;;;4.82;3.25;;;2.20;99.90;;;;;;4915754;29;20688;-72
2021/03/28 03:14:10;;;;;;;4.38;3.13;;;2.20;99.90;;;;;;4915945;29;20217;-72
2021/03/28 03:17:02;;;;;;;2.10;1.90;;;2.20;99.90;;;;;;4896372;29;20604;-71
2021/03/28 03:19:54;;;;;;;7.55;3.35;;;2.20;99.90;;;;;;4915969;29;20186;-73
2021/03/28 03:23:00;;;;;;;5.32;3.17;;;2.10;99.90;;;;;;4916135;29;20270;-72
2021/03/28 03:25:48;;;;;;;10.65;3.40;;;2.10;99.90;;;;;;4916350;29;20675;-72
2021/03/28 03:28:40;;;;;;;3.10;2.70;;;2.20;99.90;;;;;;4914619;29;20591;-71
2021/03/28 03:31:20;;;;;;;11.60;3.53;;;2.20;99.90;;;;;;4916208;29;20190;-74
2021/03/28 03:34:21;;;;;;;5.47;2.83;;;2.20;99.90;;;;;;4916478;29;20177;-72
2021/03/28 03:37:18;;;;;;;3.60;2.63;;;2.20;99.90;;;;;;4916333;29;20625;-72
2021/03/28 03:40:10;;;;;;;5.50;3.00;;;2.20;99.90;;;;;;4916329;29;20217;-72
2021/03/28 03:42:56;;;;;;;4.07;2.40;;;2.20;99.90;;;;;;4916324;29;20201;-72
2021/03/28 03:45:52;;;;;;;5.97;3.17;;;2.10;99.90;;;;;;4899594;29;20193;-71
2021/03/28 03:48:23;;;;;;;2.75;2.08;;;2.20;99.90;;;;;;4917797;29;20209;-72
2021/03/28 03:51:00;;;;;;;4.43;2.90;;;2.20;99.90;;;;;;4919328;29;20645;-71
2021/03/28 03:53:44;;;;;;;2.40;2.20;;;2.20;99.90;;;;;;4918193;29;20180;-71
2021/03/28 03:56:19;;;;;;;7.75;3.17;;;2.20;99.90;;;;;;4919312;29;20181;-71
2021/03/28 03:59:03;;;;;;;4.25;3.20;;;2.20;99.90;;;;;;4919739;29;20244;-70
2021/03/28 04:01:38;;;;;;;4.38;3.10;;;2.20;99.90;;;;;;4919943;29;20635;-71
2021/03/28 04:04:11;;;;;;;8.13;3.55;;;2.20;99.90;;;;;;4934426;29;20205;-74
2021/03/28 04:07:02;;;;;;;4.80;3.15;;;2.20;99.90;;;;;;4924196;29;20588;-73
2021/03/28 04:09:38;;;;;;;6.00;5.35;;;2.20;99.90;;;;;;4919405;29;20177;-72
2021/03/28 04:12:32;;;;;;;8.35;2.95;;;2.20;99.90;;;;;;4919188;29;20185;-72
2021/03/28 04:15:12;;;;;;;3.10;1.83;;;2.20;99.90;;;;;;4919050;29;20561;-71
2021/03/28 04:18:03;;;;;;;3.80;2.83;;;2.30;99.90;;;;;;4904285;29;20235;-72
2021/03/28 04:20:39;;;;;;;6.82;1.88;;;2.30;99.90;;;;;;4918969;29;20676;-71
2021/03/28 04:23:34;;;;;;;4.25;3.00;;;2.30;99.90;;;;;;4918729;29;20651;-71
2021/03/28 04:26:18;;;;;;;4.50;3.55;;;2.40;55.40;;;;;;4919172;29;20205;-71
2021/03/28 04:28:58;;;;;;;4.80;2.70;;;2.40;2.70;;;;;;4917492;29;20194;-71
2021/03/28 04:31:58;;;;;;;3.55;1.58;;;2.40;1.00;;;;;;4919231;29;20185;-72
2021/03/28 04:34:28;;;;;;;3.45;2.38;;;2.40;1.00;;;;;;4919301;29;20212;-71
2021/03/28 04:37:24;;;;;;;3.80;2.72;;;2.40;1.00;;;;;;4918553;29;20272;-72
2021/03/28 04:40:31;;;;;;;3.80;2.70;;;2.40;1.00;;;;;;4918935;29;20220;-72
2021/03/28 04:43:43;;;;;;;6.43;3.28;;;2.40;1.00;;;;;;4918542;29;20191;-72
2021/03/28 04:46:39;;;;;;;4.13;1.45;;;2.40;1.00;;;;;;4886292;29;20233;-71
2021/03/28 04:49:37;;;;;;;2.25;1.70;;;2.40;1.00;;;;;;4918275;29;20675;-71
2021/03/28 04:52:53;;;;;;;3.60;2.63;;;2.40;1.00;;;;;;4919289;29;20190;-72
2021/03/28 04:55:50;;;;;;;10.35;2.58;;;2.50;1.00;;;;;;4904067;29;20664;-72
2021/03/28 04:58:33;;;;;;;4.90;2.20;;;2.50;1.00;;;;;;4918362;29;20216;-72
2021/03/28 05:01:22;;;;;;;4.75;2.17;;;2.50;1.00;;;;;;4917011;29;20204;-71
2021/03/28 05:04:15;;;;;;;2.70;2.50;;;2.60;99.90;;;;;;4917269;29;20301;-71
2021/03/28 05:07:07;;;;;;;7.82;4.63;;;2.60;99.90;;;;;;4917975;29;20205;-72
2021/03/28 05:10:12;;;;;;;3.17;2.15;;;2.70;99.90;;;;;;4918014;29;20193;-72
2021/03/28 05:13:12;;;;;;;5.00;2.08;;;2.80;99.90;;;;;;4918045;29;20296;-71
2021/03/28 05:16:22;;;;;;;7.47;2.95;;;2.90;72.60;;;;;;4918165;29;20294;-70
2021/03/28 05:19:21;;;;;;;2.50;2.30;;;2.90;1.00;;;;;;4919795;29;20186;-71
2021/03/28 05:22:22;;;;;;;8.38;3.60;;;3.00;1.00;;;;;;4897784;29;20197;-71
2021/03/28 05:25:18;;;;;;;6.20;2.67;;;3.20;1.00;;;;;;4916902;29;20217;-72
2021/03/28 05:28:26;;;;;;;7.55;3.03;;;3.30;1.00;;;;;;4900448;29;20257;-71
2021/03/28 05:31:30;;;;;;;8.88;4.05;;;3.30;99.90;;;;;;4918414;29;20264;-73
2021/03/28 05:34:40;;;;;;;6.32;3.38;;;3.30;99.90;;;;;;4917581;29;20182;-72
2021/03/28 05:37:46;;;;;;;5.97;3.25;;;3.30;99.90;;;;;;4918029;29;20217;-72
2021/03/28 05:40:32;;;;;;;7.38;2.42;;;3.30;30.20;;;;;;4871616;29;20272;-71
2021/03/28 05:43:40;;;;;;;7.60;3.30;;;3.30;1.00;;;;;;4917829;29;20189;-71
2021/03/28 05:46:21;;;;;;;2.92;2.60;;;3.30;99.90;;;;;;4918654;29;20637;-74
2021/03/28 05:49:05;;;;;;;5.00;3.25;;;3.30;1.00;;;;;;4917828;29;20181;-71
2021/03/28 05:52:18;;;;;;;8.65;2.72;;;3.30;1.00;;;;;;4917407;29;20237;-71
2021/03/28 05:55:06;;;;;;;4.05;3.03;;;3.40;1.00;;;;;;5024774;23;20270;-71
2021/03/28 05:58:04;;;;;;;4.47;3.83;;;3.40;99.90;;;;;;4962871;28;20298;-70
2021/03/28 06:01:02;;;;;;;4.65;3.67;;;3.40;99.90;;;;;;4963389;29;20600;-70
2021/03/28 06:04:21;;;;;;;4.28;3.80;;;3.50;29.60;;;;;;4964819;29;20231;-71
2021/03/28 06:07:37;;;;;;;10.70;4.30;;;3.60;1.00;;;;;;4963188;28;20219;-71
2021/03/28 06:10:34;;;;;;;5.18;3.70;;;3.70;1.00;;;;;;4963748;29;20188;-71
2021/03/28 06:13:27;;;;;;;4.32;3.45;;;3.90;1.00;;;;;;4963243;29;20252;-71
2021/03/28 06:16:14;;;;;;;3.75;3.45;;;3.90;1.00;;;;;;4964817;28;20172;-71
2021/03/28 06:19:14;;;;;;;6.00;4.22;;;4.10;99.90;;;;;;4964936;29;20192;-71
2021/03/28 06:22:15;;;;;;;5.30;3.92;;;4.10;99.90;;;;;;4966079;29;20176;-70
2021/03/28 06:25:18;;;;;;;7.47;5.72;;;4.30;99.90;;;;;;4966497;29;20310;-71
2021/03/28 06:28:21;;;;;;;3.30;2.95;;;4.60;99.90;;;;;;4965926;28;20243;-71
2021/03/28 06:31:34;;;;;;;5.53;3.00;;;4.80;99.90;;;;;;4965370;29;20279;-71
2021/03/28 06:35:00;;;;;;;8.07;3.97;;;5.00;99.90;;;;;;4965116;29;20180;-71
2021/03/28 06:38:18;;;;;;;5.20;3.78;;;5.10;99.90;;;;;;4962313;28;20259;-72
2021/03/28 06:40:59;;;;;;;18.17;3.60;;;5.10;99.90;;;;;;4925503;29;20488;-71
2021/03/28 06:44:11;;;;;;;5.35;2.80;;;5.20;99.90;;;;;;4943857;29;20205;-71
2021/03/28 06:47:15;;;;;;;6.82;3.33;;;5.30;99.90;;;;;;4942248;29;20212;-72
2021/03/28 06:49:58;;;;;;;8.15;3.42;;;5.30;99.90;;;;;;4920118;29;20203;-70
2021/03/28 06:52:50;;;;;;;5.40;3.80;;;5.30;99.90;;;;;;4935125;29;20262;-71
2021/03/28 06:55:42;;;;;;;7.60;3.40;;;5.40;99.90;;;;;;4934279;29;20279;-71
2021/03/28 06:58:37;;;;;;;3.78;2.78;;;5.50;99.90;;;;;;4921618;29;20299;-70
2021/03/28 07:01:33;;;;;;;4.20;2.70;;;5.60;99.90;;;;;;4935100;29;20199;-70
2021/03/28 07:04:40;;;;;;;4.47;2.47;;;5.70;99.90;;;;;;4915575;29;20205;-71
2021/03/28 07:07:20;;;;;;;4.07;2.75;;;5.80;99.90;;;;;;4931258;29;20581;-71
2021/03/28 07:10:26;;;;;;;4.13;2.83;;;6.10;99.90;;;;;;4934286;29;20189;-71
2021/03/28 07:13:26;;;;;;;4.45;3.33;;;6.40;99.90;;;;;;4919479;29;20268;-71
2021/03/28 07:16:16;;;;;;;11.02;4.25;;;6.70;99.90;;;;;;4934270;29;20259;-71
2021/03/28 07:19:29;;;;;;;6.50;4.05;;;6.80;99.90;;;;;;4934969;29;20177;-71
2021/03/28 07:22:17;;;;;;;4.65;2.65;;;6.90;99.90;;;;;;4875835;29;20198;-70
2021/03/28 07:25:26;;;;;;;5.95;3.70;;;6.90;99.90;;;;;;4875312;29;20219;-71
2021/03/28 07:28:36;;;;;;;3.90;3.28;;;6.90;99.90;;;;;;4919346;29;20562;-70
2021/03/28 07:32:00;;;;;;;4.63;2.90;;;7.00;99.90;;;;;;4937764;29;20188;-70
2021/03/28 07:35:00;;;;;;;8.80;3.47;;;7.10;99.90;;;;;;4937663;29;20180;-70
2021/03/28 07:38:03;;;;;;;9.70;3.55;;;7.10;99.90;;;;;;4937698;29;20616;-73
2021/03/28 07:41:17;;;;;;;5.40;3.42;;;7.10;99.90;;;;;;4937410;29;20263;-71
2021/03/28 07:44:26;;;;;;;6.88;3.20;;;7.30;99.90;;;;;;4911099;29;20645;-71
2021/03/28 07:47:28;;;;;;;7.13;3.50;;;7.50;99.90;;;;;;4932139;29;20636;-71
2021/03/28 07:50:36;;;;;;;4.65;3.45;;;7.70;99.90;;;;;;4937355;29;20177;-70
2021/03/28 07:53:26;;;;;;;5.03;3.13;;;7.80;99.90;;;;;;4937955;29;20292;-70
2021/03/28 07:56:09;;;;;;;11.13;3.00;;;7.90;99.90;;;;;;4937035;29;20188;-70
2021/03/28 07:58:47;;;;;;;5.25;4.05;;;8.00;99.90;;;;;;4937362;29;20177;-70
2021/03/28 08:01:44;;;;;;;4.45;3.00;;;8.20;99.90;;;;;;4936903;29;20580;-71
2021/03/28 08:04:52;;;;;;;4.03;3.30;;;8.40;99.90;;;;;;4936907;29;20299;-71
2021/03/28 08:07:50;;;;;;;6.75;3.33;;;8.60;99.90;;;;;;4936629;29;20292;-70
2021/03/28 08:10:52;;;;;;;9.23;2.88;;;8.80;98.10;;;;;;4922203;29;20205;-71
2021/03/28 08:13:47;;;;;;;5.45;2.50;;;8.80;96.90;;;;;;4919766;29;20215;-70
2021/03/28 08:16:26;;;;;;;5.72;2.88;;;8.80;93.40;;;;;;4936302;29;20304;-71
2021/03/28 08:19:29;;;;;;;2.80;2.55;;;9.00;92.70;;;;;;4936532;29;20737;-70
2021/03/28 08:22:07;;;;;;;9.77;3.25;;;8.90;90.70;;;;;;4883227;29;20301;-71
2021/03/28 08:25:20;;;;;;;5.75;2.90;;;8.70;88.90;;;;;;4936352;29;20204;-71
2021/03/28 08:28:16;;;;;;;3.67;2.72;;;8.60;88.80;;;;;;4937012;29;20212;-71
2021/03/28 08:30:54;;;;;;;9.20;2.47;;;8.80;88.90;;;;;;4937000;29;20200;-70
2021/03/28 08:33:52;;;;;;;4.22;2.10;;;9.00;84.20;;;;;;4937198;29;20188;-70
2021/03/28 08:36:28;;;;;;;7.20;2.88;;;9.10;80.30;;;;;;4936570;29;20209;-71
2021/03/28 08:39:25;;;;;;;5.13;3.50;;;9.40;79.20;;;;;;4936461;29;20203;-71
2021/03/28 08:42:35;;;;;;;5.07;2.88;;;9.40;75.20;;;;;;4936358;29;20201;-71
2021/03/28 08:45:28;;;;;;;6.03;2.03;;;9.70;70.30;;;;;;4937668;29;20212;-75
2021/03/28 08:48:18;;;;;;;3.80;1.98;;;10.00;66.90;;;;;;4937935;29;20228;-71
2021/03/28 08:50:59;;;;;;;7.15;2.65;;;9.90;62.30;;;;;;4938123;29;20704;-71
2021/03/28 08:53:50;;;;;;;4.15;2.30;;;9.90;60.80;;;;;;4938323;29;20733;-71
2021/03/28 08:56:51;;;;;;;5.00;2.50;;;9.80;58.00;;;;;;4935989;29;20232;-70
2021/03/28 08:59:25;;;;;;;2.25;1.98;;;9.60;54.20;;;;;;4935844;29;20697;-71
2021/03/28 09:02:03;;;;;;;5.70;1.92;;;9.60;53.10;;;;;;4935841;29;20189;-72
2021/03/28 09:04:51;;;;;;;6.60;2.80;;;9.90;53.30;;;;;;4935789;29;20201;-72
2021/03/28 09:07:31;;;;;;;3.50;1.92;;;10.00;50.00;;;;;;4925958;29;20726;-73
2021/03/28 09:10:29;;;;;;;3.72;1.85;;;10.20;48.40;;;;;;4934743;29;20279;-72
2021/03/28 09:13:12;;;;;;;4.60;2.42;;;10.50;46.90;;;;;;4935447;29;20228;-72
2021/03/28 09:15:59;;;;;;;13.37;4.70;;;10.60;44.50;;;;;;4934999;29;20283;-72
2021/03/28 09:18:47;;;;;;;4.40;2.80;;;10.90;42.90;;;;;;4931336;29;20977;-74
2021/03/28 09:21:29;;;;;;;2.70;2.15;;;11.20;41.00;;;;;;4934180;29;20448;-70
2021/03/28 09:24:07;;;;;;;4.83;1.80;;;11.20;39.50;;;;;;4934420;29;20690;-72
2021/03/28 09:26:43;;;;;;;5.20;2.43;;;11.10;35.90;;;;;;4933877;29;20507;-71
2021/03/28 09:29:41;;;;;;;7.32;2.25;;;10.90;34.70;;;;;;4926173;29;20797;-70
2021/03/28 09:32:26;;;;;;;4.13;1.93;;;10.80;34.50;;;;;;4917205;29;20746;-72
2021/03/28 09:35:06;;;;;;;8.40;2.60;;;11.10;33.10;;;;;;4929437;29;20443;-71
2021/03/28 09:37:44;;;;;;;10.63;3.40;;;11.20;32.40;;;;;;4934174;29;20554;-73
2021/03/28 09:40:22;;;;;;;3.65;2.60;;;11.20;29.90;;;;;;4934572;29;20384;-71
2021/03/28 09:43:22;;;;;;;5.87;2.70;;;11.30;28.90;;;;;;4934691;29;20211;-69
2021/03/28 09:46:17;;;;;;;4.97;1.90;;;11.30;27.60;;;;;;4913705;29;20851;-71
2021/03/28 09:49:13;;;;;;;3.50;2.03;;;11.40;26.10;;;;;;4926891;29;20205;-72
2021/03/28 09:52:02;;;;;;;8.57;3.13;;;11.40;24.50;;;;;;4928823;29;20437;-71
2021/03/28 09:54:52;;;;;;;4.70;3.03;;;11.40;23.40;;;;;;4934621;29;20422;-73
2021/03/28 09:57:55;;;;;;;4.67;2.30;;;11.60;22.20;;;;;;4934651;29;20709;-71
2021/03/28 10:00:54;;;;;;;14.43;2.72;;;11.70;21.00;;;;;;4934787;29;20464;-70
2021/03/28 10:03:28;;;;;;;3.73;2.70;;;11.70;18.80;;;;;;4917432;29;20220;-72
2021/03/28 10:06:04;;;;;;;3.70;2.37;;;12.20;19.40;;;;;;4934162;29;20838;-71
2021/03/28 10:08:37;;;;;;;3.90;1.77;;;12.80;18.20;;;;;;4934808;29;20915;-71
2021/03/28 10:11:15;;;;;;;3.37;2.73;;;13.20;16.00;;;;;;4932975;29;20817;-73
2021/03/28 10:13:57;;;;;;;4.00;1.53;;;13.00;13.60;;;;;;4917238;29;20987;-73
2021/03/28 10:16:30;;;;;;;2.40;2.00;;;12.80;11.20;;;;;;4934070;29;20513;-72
2021/03/28 10:19:22;;;;;;;5.43;2.23;;;12.80;10.20;;;;;;4933997;29;20471;-72
2021/03/28 10:22:16;;;;;;;7.00;1.83;;;13.10;9.00;;;;;;4926605;29;20448;-70
2021/03/28 10:25:35;;;;;;;4.90;2.20;;;13.10;7.30;;;;;;4934001;29;20499;-71
2021/03/28 10:28:21;;;;;;;3.30;2.50;;;12.60;4.40;;;;;;4933825;29;20427;-71
2021/03/28 10:31:03;;;;;;;2.83;1.57;;;12.40;3.30;;;;;;4933029;29;20422;-73
2021/03/28 10:33:41;;;;;;;3.30;2.10;;;12.30;2.50;;;;;;4933988;29;20432;-71
2021/03/28 10:36:28;;;;;;;3.03;1.70;;;12.40;3.10;;;;;;4933368;29;20503;-73
2021/03/28 10:39:16;;;;;;;3.73;1.77;;;12.50;2.40;;;;;;4933832;28;20800;-73
2021/03/28 10:42:14;;;;;;;6.90;2.40;;;12.20;1.00;;;;;;4934298;29;20519;-71
2021/03/28 10:45:09;;;;;;;5.53;2.40;;;11.90;1.00;;;;;;4934584;29;20500;-73
2021/03/28 10:48:15;;;;;;;10.60;2.13;;;11.70;1.00;;;;;;4932123;29;20435;-71
2021/03/28 10:51:16;;;;;;;2.67;1.40;;;11.80;1.00;;;;;;4933933;29;20424;-71
2021/03/28 10:54:02;;;;;;;6.70;2.70;;;11.80;1.00;;;;;;4934615;29;20424;-72
2021/03/28 10:57:24;;;;;;;10.30;2.60;;;11.50;1.00;;;;;;4934602;29;20961;-72
2021/03/28 11:00:26;;;;;;;3.72;2.65;;;11.10;1.00;;;;;;4942197;29;20436;-71
2021/03/28 11:03:39;;;;;;;4.70;2.13;;;11.00;1.00;;;;;;4941444;29;20189;-72
2021/03/28 11:06:51;;;;;;;3.20;1.80;;;11.20;1.00;;;;;;4945819;29;20488;-73
2021/03/28 11:09:39;;;;;;;4.53;1.60;;;11.70;1.00;;;;;;4937679;28;20427;-72
2021/03/28 11:12:26;;;;;;;6.37;2.10;;;11.80;1.00;;;;;;4937671;29;20412;-71
2021/03/28 11:15:33;;;;;;;4.63;2.10;;;11.70;1.00;;;;;;4937126;29;20432;-71
2021/03/28 11:18:41;;;;;;;4.83;2.07;;;11.80;1.00;;;;;;4934754;29;20456;-71
2021/03/28 11:21:25;;;;;;;5.60;2.10;;;11.80;1.00;;;;;;4929917;29;20419;-72
2021/03/28 11:24:16;;;;;;;8.20;2.27;;;12.00;1.00;;;;;;4923319;29;20419;-71
2021/03/28 11:27:39;;;;;;;2.40;1.40;;;12.10;1.00;;;;;;4936677;29;20452;-69
2021/03/28 11:30:27;;;;;;;5.00;1.43;;;12.00;1.00;;;;;;4908434;29;20411;-71
2021/03/28 11:33:03;;;;;;;4.53;2.30;;;11.90;1.00;;;;;;4936865;29;20535;-71
2021/03/28 11:35:35;;;;;;;2.93;1.03;;;12.10;1.00;;;;;;4920852;29;20432;-71
2021/03/28 11:38:42;;;;;;;4.37;1.90;;;12.20;1.00;;;;;;4936612;29;20448;-70
2021/03/28 11:41:50;;;;;;;6.70;2.27;;;12.30;1.00;;;;;;4917875;29;20437;-73
2021/03/28 11:44:39;;;;;;;3.73;2.03;;;12.20;1.00;;;;;;4917665;29;20392;-71
2021/03/28 11:47:28;;;;;;;5.97;2.30;;;12.30;1.00;;;;;;4930849;29;20794;-71
2021/03/28 11:50:20;;;;;;;4.80;1.67;;;12.30;1.00;;;;;;4936119;29;20436;-70
2021/03/28 11:53:04;;;;;;;3.03;1.93;;;12.50;1.00;;;;;;4927611;29;20916;-70
2021/03/28 11:55:39;;;;;;;4.13;1.80;;;12.90;1.00;;;;;;4935675;23;20939;-70
2021/03/28 11:58:38;;;;;;;4.83;1.80;;;13.00;1.00;;;;;;4899200;29;20541;-70
2021/03/28 12:01:06;;;;;;;4.83;2.43;;;13.20;1.00;;;;;;4898918;29;20470;-69
2021/03/28 12:03:44;;;;;;;3.40;1.47;;;13.20;1.00;;;;;;4898555;29;20409;-71
2021/03/28 12:06:48;;;;;;;5.17;1.90;;;13.30;1.00;;;;;;4896075;29;20821;-69
2021/03/28 12:09:25;;;;;;;3.50;1.80;;;13.40;1.00;;;;;;4899046;29;20478;-71
2021/03/28 12:11:54;;;;;;;1.40;1.10;;;13.50;1.00;;;;;;4900109;29;20962;-71
2021/03/28 12:14:35;;;;;;;2.83;1.80;;;13.50;1.00;;;;;;4898535;29;20431;-71
2021/03/28 12:17:36;;;;;;;2.13;0.97;;;13.40;1.00;;;;;;4885822;29;20816;-70
2021/03/28 12:20:19;;;;;;;14.23;2.30;;;13.30;1.00;;;;;;4899253;29;20405;-70
2021/03/28 12:23:02;;;;;;;5.23;2.10;;;13.20;1.00;;;;;;4893063;29;20467;-71
2021/03/28 12:25:36;;;;;;;8.90;2.10;;;13.20;1.00;;;;;;4899820;29;20841;-71
2021/03/28 12:28:33;;;;;;;3.13;1.43;;;13.40;1.00;;;;;;4898924;29;20450;-70
2021/03/28 12:31:26;;;;;;;3.40;1.27;;;13.70;1.00;;;;;;4896430;29;20477;-72
2021/03/28 12:34:04;;;;;;;6.83;2.07;;;13.60;1.00;;;;;;4912646;29;20445;-71
2021/03/28 12:36:59;;;;;;;7.30;1.80;;;13.70;1.00;;;;;;4894057;29;20570;-70
2021/03/28 12:39:30;;;;;;;5.57;1.53;;;13.80;1.00;;;;;;4872162;29;20441;-70
2021/03/28 12:42:23;;;;;;;3.53;2.07;;;13.60;1.00;;;;;;4879698;29;21004;-70
2021/03/28 12:44:51;;;;;;;2.63;1.30;;;13.50;1.00;;;;;;4870662;29;20545;-70
2021/03/28 12:47:24;;;;;;;1.37;0.90;;;13.50;1.00;;;;;;4894300;29;20429;-69
2021/03/28 12:49:56;;;;;;;2.50;1.20;;;13.80;1.00;;;;;;4898570;29;20778;-70
2021/03/28 12:52:41;;;;;;;1.97;1.40;;;13.60;1.00;;;;;;4898912;29;20502;-70
2021/03/28 12:55:17;;;;;;;3.07;1.87;;;13.30;1.00;;;;;;4916818;29;20993;-69
2021/03/28 12:57:47;;;;;;;4.50;2.17;;;13.30;1.00;;;;;;4935919;29;20431;-70
2021/03/28 13:00:26;;;;;;;4.00;1.30;;;13.40;1.00;;;;;;4918683;29;20437;-70
2021/03/28 13:02:55;;;;;;;4.43;1.57;;;13.50;1.00;;;;;;4935934;29;20468;-70
2021/03/28 13:05:28;;;;;;;2.70;1.20;;;13.70;1.00;;;;;;4935732;29;20443;-70
2021/03/28 13:07:58;;;;;;;1.53;0.83;;;13.90;1.00;;;;;;4939306;29;20422;-70
2021/03/28 13:10:30;;;;;;;5.17;2.03;;;13.80;1.00;;;;;;4928896;29;20456;-71
2021/03/28 13:13:02;;;;;;;3.40;1.10;;;13.90;1.00;;;;;;4923805;29;20444;-71
2021/03/28 13:15:46;;;;;;;3.03;1.00;;;13.70;1.00;;;;;;4919995;29;20456;-70
2021/03/28 13:18:18;;;;;;;4.37;1.50;;;13.50;1.00;;;;;;4919011;29;20444;-70
2021/03/28 13:20:50;;;;;;;7.27;1.40;;;13.80;1.00;;;;;;4935341;29;20424;-69
2021/03/28 13:23:37;;;;;;;2.57;1.27;;;13.80;1.00;;;;;;4935172;29;20575;-69
2021/03/28 13:26:18;;;;;;;4.00;1.80;;;13.60;1.00;;;;;;4933938;29;20487;-69
2021/03/28 13:28:58;;;;;;;4.77;1.40;;;13.60;1.00;;;;;;4934807;29;20946;-68
2021/03/28 13:31:33;;;;;;;4.40;2.13;;;13.50;1.00;;;;;;4936879;29;20476;-70
2021/03/28 13:34:06;;;;;;;2.20;0.97;;;13.40;1.00;;;;;;4943482;29;20436;-69
2021/03/28 13:36:39;;;;;;;2.30;1.50;;;13.20;1.00;;;;;;4945813;28;20452;-69
2021/03/28 13:39:20;;;;;;;2.37;2.17;;;13.00;1.00;;;;;;4936602;29;20438;-70
2021/03/28 13:42:04;;;;;;;2.47;1.50;;;12.80;1.00;;;;;;4953976;29;20729;-70
2021/03/28 13:44:46;;;;;;;2.60;1.70;;;12.70;1.00;;;;;;4940881;29;20416;-68
2021/03/28 13:47:13;;;;;;;2.40;1.50;;;12.50;1.00;;;;;;4936942;29;20511;-68
2021/03/28 13:49:43;;;;;;;7.00;1.60;;;12.40;1.00;;;;;;4934187;29;20412;-70
2021/03/28 13:52:17;;;;;;;4.80;1.30;;;12.30;1.00;;;;;;4934828;29;20432;-69
2021/03/28 13:54:49;;;;;;;4.00;1.60;;;12.60;1.00;;;;;;4933759;29;20529;-69
2021/03/28 13:57:24;;;;;;;3.40;1.20;;;12.80;1.00;;;;;;4933258;29;20468;-69
2021/03/28 14:00:11;;;;;;;1.83;1.20;;;12.90;1.00;;;;;;4934044;29;20439;-70
2021/03/28 14:02:41;;;;;;;2.43;1.73;;;12.90;1.00;;;;;;4917529;29;20448;-71
2021/03/28 14:05:12;;;;;;;2.57;1.60;;;12.80;1.00;;;;;;4933584;29;20597;-70
2021/03/28 14:07:49;;;;;;;3.37;1.60;;;12.70;1.00;;;;;;4934037;29;21019;-70
2021/03/28 14:10:27;;;;;;;7.43;1.80;;;12.60;1.00;;;;;;4934231;29;20408;-69
2021/03/28 14:13:03;;;;;;;7.90;2.50;;;12.80;1.00;;;;;;4933919;29;20826;-69
2021/03/28 14:15:43;;;;;;;2.50;1.73;;;13.10;1.00;;;;;;4942001;29;20512;-69
2021/03/28 14:18:22;;;;;;;5.03;1.73;;;13.30;1.00;;;;;;4949634;29;20414;-70
2021/03/28 14:20:52;;;;;;;3.17;2.10;;;13.30;1.00;;;;;;4952661;29;20507;-70
2021/03/28 14:23:23;;;;;;;2.93;1.80;;;13.10;1.00;;;;;;4952992;29;20419;-70
2021/03/28 14:25:54;;;;;;;2.73;1.83;;;13.10;1.00;;;;;;4952670;28;20952;-69
2021/03/28 14:28:41;;;;;;;2.70;1.90;;;13.20;1.00;;;;;;4952767;29;20409;-70
2021/03/28 14:31:21;;;;;;;2.83;1.27;;;12.80;1.00;;;;;;4933991;29;20502;-70
2021/03/28 14:34:14;;;;;;;2.40;1.97;;;12.70;1.00;;;;;;4934507;29;20408;-69
2021/03/28 14:37:13;;;;;;;3.40;2.50;;;12.80;1.00;;;;;;4917065;29;20470;-69
2021/03/28 14:40:15;;;;;;;3.50;1.17;;;13.10;1.00;;;;;;4895956;29;20951;-70
2021/03/28 14:42:53;;;;;;;4.60;2.13;;;13.20;1.00;;;;;;4929143;29;20922;-69
2021/03/28 14:45:29;;;;;;;3.30;2.03;;;13.30;1.00;;;;;;4933699;29;20472;-69
2021/03/28 14:48:06;;;;;;;2.83;1.97;;;13.30;1.00;;;;;;4934176;29;21042;-69
2021/03/28 14:50:37;;;;;;;3.60;1.40;;;13.40;1.00;;;;;;4935062;29;20518;-68
2021/03/28 14:53:19;;;;;;;6.33;3.63;;;13.10;1.00;;;;;;4936697;29;20450;-69
2021/03/28 14:55:58;;;;;;;3.80;2.43;;;12.90;1.00;;;;;;4935837;29;20491;-70
2021/03/28 14:58:48;;;;;;;6.47;1.80;;;12.90;1.00;;;;;;4938765;29;20448;-70
2021/03/28 15:01:25;;;;;;;6.60;4.37;;;12.80;1.00;;;;;;4915246;29;20548;-70
2021/03/28 15:04:09;;;;;;;4.20;1.50;;;12.70;1.00;;;;;;4917138;29;20429;-69
2021/03/28 15:07:00;;;;;;;5.10;2.40;;;12.50;1.00;;;;;;4916226;29;20508;-71
2021/03/28 15:09:36;;;;;;;3.23;2.07;;;12.60;1.00;;;;;;4898610;29;20429;-69
2021/03/28 15:12:15;;;;;;;4.57;3.13;;;12.70;1.00;;;;;;4915440;29;20477;-70
2021/03/28 15:14:53;;;;;;;2.37;2.07;;;12.80;1.00;;;;;;4913497;29;20453;-70
2021/03/28 15:17:33;;;;;;;1.60;1.50;;;12.90;1.00;;;;;;4914847;29;20563;-70
2021/03/28 15:20:24;;;;;;;3.70;2.10;;;13.00;1.00;;;;;;4915156;29;20398;-69
2021/03/28 15:23:00;;;;;;;1.60;1.43;;;12.80;1.00;;;;;;4898036;29;20420;-70
2021/03/28 15:25:32;;;;;;;2.23;1.53;;;12.70;3.60;;;;;;4915287;29;20467;-70
2021/03/28 15:28:04;;;;;;;6.90;2.23;;;12.60;1.00;;;;;;4914593;29;20454;-69
2021/03/28 15:30:36;;;;;;;4.40;2.03;;;12.50;1.00;;;;;;4915380;29;20461;-69
2021/03/28 15:33:32;;;;;;;3.27;2.27;;;12.60;1.00;;;;;;4914078;29;20844;-68
2021/03/28 15:36:10;;;;;;;3.27;1.97;;;12.60;1.00;;;;;;4915128;29;20828;-69
2021/03/28 15:39:15;;;;;;;3.93;2.63;;;12.60;1.00;;;;;;4915291;29;20465;-69
2021/03/28 15:41:59;;;;;;;4.80;2.47;;;12.60;1.00;;;;;;4917138;29;20422;-70
2021/03/28 15:45:03;;;;;;;5.23;1.83;;;12.40;1.00;;;;;;4918116;29;20417;-69
2021/03/28 15:47:52;;;;;;;2.50;2.03;;;12.40;1.00;;;;;;4918983;29;20444;-69
2021/03/28 15:50:30;;;;;;;1.87;1.23;;;12.30;1.00;;;;;;4921448;29;20436;-69
2021/03/28 15:53:09;;;;;;;4.37;2.17;;;12.30;1.00;;;;;;4922555;29;20475;-70
2021/03/28 15:55:55;;;;;;;5.00;2.63;;;12.40;1.00;;;;;;4925385;29;20422;-69
2021/03/28 15:58:49;;;;;;;2.03;1.83;;;12.50;1.00;;;;;;4923616;29;20441;-68
2021/03/28 16:01:55;;;;;;;3.20;1.87;;;12.60;1.00;;;;;;4925965;29;20446;-69
2021/03/28 16:04:53;;;;;;;7.33;3.00;;;12.60;1.00;;;;;;4925674;29;20746;-69
2021/03/28 16:07:31;;;;;;;3.00;1.53;;;12.40;1.00;;;;;;4937540;29;20548;-71
2021/03/28 16:10:22;;;;;;;8.13;2.67;;;12.40;1.00;;;;;;4921272;29;20432;-71
2021/03/28 16:13:18;;;;;;;3.73;2.27;;;12.40;1.00;;;;;;4919419;29;20645;-70
2021/03/28 16:16:21;;;;;;;3.20;1.83;;;12.30;1.00;;;;;;4920404;29;20404;-70
2021/03/28 16:19:14;;;;;;;5.10;2.70;;;12.30;1.00;;;;;;4902525;29;20473;-70
2021/03/28 16:22:09;;;;;;;2.10;1.77;;;12.20;1.00;;;;;;4926188;29;20540;-71
2021/03/28 16:24:44;;;;;;;4.07;2.40;;;12.20;1.00;;;;;;4938324;29;20448;-70
2021/03/28 16:27:19;;;;;;;2.90;1.70;;;12.10;1.00;;;;;;4933264;29;20455;-71
2021/03/28 16:30:15;;;;;;;3.30;2.10;;;12.10;1.00;;;;;;4931121;29;20428;-70
2021/03/28 16:33:21;;;;;;;6.33;2.57;;;12.00;1.00;;;;;;4928618;29;20423;-70
2021/03/28 16:36:15;;;;;;;4.20;2.20;;;12.00;1.00;;;;;;4935575;29;20443;-69
2021/03/28 16:39:12;;;;;;;3.77;2.43;;;11.90;1.00;;;;;;4935862;29;20768;-70
2021/03/28 16:42:05;;;;;;;8.73;3.50;;;11.90;1.00;;;;;;4935629;29;20539;-70
2021/03/28 16:44:58;;;;;;;6.30;2.47;;;11.90;1.00;;;;;;4936433;29;20464;-69
2021/03/28 16:47:43;;;;;;;4.70;2.27;;;11.90;1.00;;;;;;4941715;29;20442;-71
2021/03/28 16:50:14;;;;;;;4.43;2.60;;;11.90;1.00;;;;;;4955176;29;20428;-71
2021/03/28 16:52:47;;;;;;;4.80;3.20;;;11.90;1.00;;;;;;4955194;29;20413;-72
2021/03/28 16:55:20;;;;;;;2.90;2.07;;;11.80;1.00;;;;;;4939688;29;20437;-71
2021/03/28 16:57:50;;;;;;;2.90;2.20;;;11.80;1.00;;;;;;4932841;29;20468;-70
2021/03/28 17:00:20;;;;;;;3.40;1.63;;;11.80;1.00;;;;;;4941908;28;20925;-69
2021/03/28 17:02:48;;;;;;;3.67;2.10;;;11.80;1.00;;;;;;4945102;29;20507;-69
2021/03/28 17:05:22;;;;;;;2.60;1.50;;;11.90;1.00;;;;;;4919920;29;20463;-70